createdAt,value
2023-05-05T00:00:59.738Z,5.80
2023-05-05T00:03:27.753Z,4.75
2023-05-05T00:05:55.504Z,6.32
2023-05-05T00:08:23.218Z,5.45
2023-05-05T00:10:52.298Z,4.90
2023-05-05T00:13:21.052Z,3.47
2023-05-05T00:15:50.361Z,5.53
2023-05-05T00:18:18.513Z,3.25
2023-05-05T00:20:47.642Z,3.30
2023-05-05T00:23:17.011Z,4.88
2023-05-05T00:25:44.129Z,3.92
2023-05-05T00:28:11.610Z,4.60
2023-05-05T00:30:40.069Z,4.45
2023-05-05T00:33:07.476Z,3.50
2023-05-05T00:35:34.838Z,3.25
2023-05-05T00:38:03.163Z,4.35
2023-05-05T00:40:30.629Z,2.72
2023-05-05T00:42:59.658Z,4.07
2023-05-05T00:45:27.059Z,5.55
2023-05-05T00:48:00.453Z,2.75
2023-05-05T00:50:30.151Z,3.97
2023-05-05T00:53:00.900Z,4.30
2023-05-05T00:55:32.368Z,3.53
2023-05-05T00:58:01.126Z,4.60
2023-05-05T01:00:30.141Z,5.80
2023-05-05T01:02:58.101Z,5.05
2023-05-05T01:05:27.992Z,3.50
2023-05-05T01:08:02.994Z,9.02
2023-05-05T01:13:26.477Z,3.65
2023-05-05T01:16:21.166Z,7.70
2023-05-05T01:18:52.057Z,5.20
2023-05-05T01:21:29.603Z,6.40
2023-05-05T01:24:18.822Z,4.78
2023-05-05T01:27:07.849Z,7.13
2023-05-05T01:29:47.775Z,8.10
2023-05-05T01:32:16.572Z,6.95
2023-05-05T01:34:58.601Z,4.93
2023-05-05T01:37:30.726Z,4.43
2023-05-05T01:40:04.112Z,6.78
2023-05-05T01:42:34.119Z,4.70
2023-05-05T01:45:04.983Z,5.63
2023-05-05T01:47:32.887Z,4.57
2023-05-05T01:50:02.479Z,6.10
2023-05-05T01:52:32.869Z,6.65
2023-05-05T01:55:02.177Z,9.10
2023-05-05T01:57:33.743Z,8.63
2023-05-05T02:00:06.315Z,4.78
2023-05-05T02:02:45.416Z,5.28
2023-05-05T02:05:13.830Z,8.75
2023-05-05T02:07:41.897Z,5.18
2023-05-05T02:10:31.191Z,6.05
2023-05-05T02:13:01.756Z,7.03
2023-05-05T02:15:30.863Z,5.65
2023-05-05T02:17:59.778Z,3.05
2023-05-05T02:20:30.460Z,6.28
2023-05-05T02:22:57.681Z,3.90
2023-05-05T02:25:32.639Z,3.25
2023-05-05T02:28:02.806Z,2.50
2023-05-05T02:30:35.383Z,2.97
2023-05-05T02:33:09.480Z,6.22
2023-05-05T02:35:41.414Z,4.70
2023-05-05T02:38:17.561Z,4.60
2023-05-05T02:40:50.548Z,5.15
2023-05-05T02:43:21.682Z,2.85
2023-05-05T02:45:49.104Z,3.05
2023-05-05T02:48:17.386Z,6.82
2023-05-05T02:50:44.611Z,6.97
2023-05-05T02:53:27.991Z,3.85
2023-05-05T02:56:14.301Z,4.35
2023-05-05T02:59:00.516Z,4.20
2023-05-05T03:01:51.457Z,5.35
2023-05-05T03:04:29.420Z,3.75
2023-05-05T03:07:01.352Z,3.97
2023-05-05T03:09:33.147Z,7.00
2023-05-05T03:12:07.374Z,4.13
2023-05-05T03:14:47.303Z,4.75
2023-05-05T03:17:18.744Z,6.53
2023-05-05T03:19:47.004Z,5.47
2023-05-05T03:22:14.224Z,7.18
2023-05-05T03:24:50.565Z,5.93
2023-05-05T03:27:20.807Z,10.10
2023-05-05T03:29:48.294Z,7.35
2023-05-05T03:32:16.297Z,8.65
2023-05-05T03:34:44.037Z,7.85
2023-05-05T03:37:11.169Z,5.38
2023-05-05T03:39:40.174Z,10.27
2023-05-05T03:42:08.645Z,5.63
2023-05-05T03:44:36.696Z,9.73
2023-05-05T03:47:03.903Z,6.72
2023-05-05T03:49:33.907Z,8.38
2023-05-05T03:52:01.095Z,8.38
2023-05-05T03:54:28.854Z,9.50
2023-05-05T03:56:56.411Z,5.47
2023-05-05T03:59:23.722Z,8.63
2023-05-05T04:01:51.048Z,12.85
2023-05-05T04:04:18.147Z,10.43
2023-05-05T04:06:45.635Z,9.98
2023-05-05T04:09:14.637Z,10.32
2023-05-05T04:11:43.378Z,9.00
2023-05-05T04:14:11.492Z,8.95
2023-05-05T04:16:38.586Z,13.20
2023-05-05T04:19:05.998Z,7.47
2023-05-05T04:21:33.397Z,16.92
2023-05-05T04:24:01.089Z,16.40
2023-05-05T04:26:28.217Z,12.90
2023-05-05T04:28:56.284Z,9.00
2023-05-05T04:31:23.792Z,18.67
2023-05-05T04:33:51.560Z,21.73
2023-05-05T04:36:19.329Z,21.50
2023-05-05T04:38:47.541Z,17.67
2023-05-05T04:41:14.669Z,16.92
2023-05-05T04:43:43.521Z,15.05
2023-05-05T04:46:10.592Z,23.73
2023-05-05T04:48:38.596Z,15.93
2023-05-05T04:51:07.162Z,17.73
2023-05-05T04:53:34.812Z,22.92
2023-05-05T04:56:02.151Z,19.83
2023-05-05T04:58:29.407Z,13.68
2023-05-05T05:00:56.832Z,21.42
2023-05-05T05:03:24.324Z,16.23
2023-05-05T05:05:52.084Z,21.00
2023-05-05T05:08:19.201Z,16.48
2023-05-05T05:10:46.395Z,21.23
2023-05-05T05:13:13.533Z,19.10
2023-05-05T05:15:40.975Z,13.68
2023-05-05T05:18:08.355Z,17.35
2023-05-05T05:20:35.582Z,19.58
2023-05-05T05:23:02.882Z,16.15
2023-05-05T05:25:31.880Z,16.58
2023-05-05T05:28:09.497Z,15.90
2023-05-05T05:30:43.721Z,20.85
2023-05-05T05:33:11.956Z,22.05
2023-05-05T05:35:39.924Z,23.15
2023-05-05T05:38:07.178Z,12.38
2023-05-05T05:40:34.597Z,18.70
2023-05-05T05:43:03.135Z,14.00
2023-05-05T05:45:30.961Z,16.58
2023-05-05T05:47:58.232Z,14.98
2023-05-05T05:50:28.748Z,17.08
2023-05-05T05:52:58.156Z,16.45
2023-05-05T05:55:25.912Z,16.05
2023-05-05T05:57:54.221Z,13.18
2023-05-05T06:00:21.566Z,19.08
2023-05-05T06:02:56.007Z,11.77
2023-05-05T06:05:27.053Z,11.02
2023-05-05T06:07:54.563Z,13.10
2023-05-05T06:10:30.409Z,18.00
2023-05-05T06:13:02.450Z,12.98
2023-05-05T06:15:31.489Z,20.05
2023-05-05T06:17:59.901Z,13.30
2023-05-05T06:20:27.947Z,9.40
2023-05-05T06:22:56.129Z,8.82
2023-05-05T06:25:23.927Z,14.10
2023-05-05T06:27:52.416Z,10.30
2023-05-05T06:30:19.840Z,11.55
2023-05-05T06:32:46.887Z,16.33
2023-05-05T06:35:14.013Z,13.27
2023-05-05T06:37:41.189Z,9.43
2023-05-05T06:40:09.287Z,7.85
2023-05-05T06:42:36.937Z,14.02
2023-05-05T06:45:08.557Z,11.52
2023-05-05T06:47:36.464Z,14.65
2023-05-05T06:50:04.083Z,15.52
2023-05-05T06:52:31.297Z,16.80
2023-05-05T06:54:58.484Z,24.73
2023-05-05T06:57:25.837Z,17.40
2023-05-05T06:59:54.122Z,13.25
2023-05-05T07:02:21.295Z,13.65
2023-05-05T07:04:48.398Z,11.45
2023-05-05T07:07:15.634Z,8.13
2023-05-05T07:09:42.908Z,6.28
2023-05-05T07:12:10.290Z,7.00
2023-05-05T07:14:37.427Z,8.48
2023-05-05T07:17:04.596Z,8.15
2023-05-05T07:19:32.966Z,7.20
2023-05-05T07:22:00.187Z,8.40
2023-05-05T07:24:27.336Z,7.20
2023-05-05T07:26:54.589Z,8.43
2023-05-05T07:29:21.806Z,6.75
2023-05-05T07:31:48.946Z,5.57
2023-05-05T07:34:16.107Z,6.75
2023-05-05T07:36:43.156Z,10.02
2023-05-05T07:39:10.228Z,5.55
2023-05-05T07:41:37.345Z,7.05
2023-05-05T07:44:04.619Z,7.30
2023-05-05T07:46:31.748Z,4.85
2023-05-05T07:48:59.198Z,3.95
2023-05-05T07:51:26.755Z,6.18
2023-05-05T07:53:53.804Z,3.75
2023-05-05T07:56:21.781Z,5.78
2023-05-05T07:58:49.003Z,5.00
2023-05-05T08:01:16.206Z,5.78
2023-05-05T08:03:43.493Z,4.38
2023-05-05T08:06:10.787Z,3.25
2023-05-05T08:08:38.373Z,7.35
2023-05-05T08:11:06.890Z,5.78
2023-05-05T08:13:34.831Z,5.93
2023-05-05T08:16:02.212Z,6.75
2023-05-05T08:18:30.852Z,6.97
2023-05-05T08:20:58.227Z,6.30
2023-05-05T08:23:25.346Z,4.60
2023-05-05T08:25:52.476Z,6.93
2023-05-05T08:28:19.732Z,5.38
2023-05-05T08:30:47.386Z,5.88
2023-05-05T08:33:14.657Z,11.65
2023-05-05T08:35:43.118Z,8.90
2023-05-05T08:38:12.156Z,5.57
2023-05-05T08:40:40.824Z,7.95
2023-05-05T08:43:08.484Z,5.65
2023-05-05T08:45:36.944Z,10.10
2023-05-05T08:48:05.371Z,9.57
2023-05-05T08:50:33.425Z,9.52
2023-05-05T08:53:12.181Z,8.82
2023-05-05T08:55:51.503Z,10.07
2023-05-05T08:58:19.805Z,10.07
2023-05-05T09:00:48.480Z,10.25
2023-05-05T09:03:16.457Z,11.32
2023-05-05T09:05:44.557Z,11.02
2023-05-05T09:08:11.966Z,11.60
2023-05-05T09:10:42.718Z,9.82
2023-05-05T09:13:09.918Z,9.93
2023-05-05T09:15:39.236Z,11.13
2023-05-05T09:18:09.496Z,11.98
2023-05-05T09:20:38.851Z,8.43
2023-05-05T09:23:13.917Z,9.18
2023-05-05T09:25:43.710Z,11.02
2023-05-05T09:28:12.763Z,9.80
2023-05-05T09:30:42.223Z,12.52
2023-05-05T09:33:10.102Z,9.63
2023-05-05T09:35:54.550Z,7.38
2023-05-05T09:38:23.921Z,8.13
2023-05-05T09:40:53.385Z,7.15
2023-05-05T09:43:22.581Z,6.85
2023-05-05T09:45:51.045Z,7.82
2023-05-05T09:48:25.896Z,8.73
2023-05-05T09:50:53.367Z,8.32
2023-05-05T09:53:21.157Z,7.15
2023-05-05T09:55:56.263Z,8.35
2023-05-05T09:58:26.154Z,4.30
2023-05-05T10:00:54.524Z,10.55
2023-05-05T10:03:22.229Z,5.68
2023-05-05T10:05:58.112Z,5.10
2023-05-05T10:08:27.890Z,5.40
2023-05-05T10:10:58.466Z,7.40
2023-05-05T10:13:25.788Z,6.40
2023-05-05T10:15:55.430Z,4.88
2023-05-05T10:18:25.520Z,3.42
2023-05-05T10:21:01.842Z,3.78
2023-05-05T10:23:47.506Z,5.13
2023-05-05T10:26:16.979Z,11.10
2023-05-05T10:28:51.092Z,3.90
2023-05-05T10:31:26.472Z,5.13
2023-05-05T10:33:59.871Z,5.75
2023-05-05T10:36:29.447Z,6.97
2023-05-05T10:38:57.915Z,2.85
2023-05-05T10:41:26.766Z,5.75
2023-05-05T10:43:57.481Z,3.75
2023-05-05T10:46:27.515Z,5.68
2023-05-05T10:49:03.034Z,3.42
2023-05-05T10:52:21.215Z,4.40
2023-05-05T10:55:09.668Z,4.65
2023-05-05T10:57:40.679Z,4.05
2023-05-05T11:00:09.555Z,6.72
2023-05-05T11:02:37.595Z,6.28
2023-05-05T11:05:13.475Z,3.20
2023-05-05T11:07:43.538Z,2.35
2023-05-05T11:10:13.282Z,6.22
2023-05-05T11:12:58.016Z,4.35
2023-05-05T11:15:31.484Z,6.10
2023-05-05T11:18:05.771Z,5.80
2023-05-05T11:20:40.255Z,3.63
2023-05-05T11:23:07.737Z,5.63
2023-05-05T11:25:42.249Z,4.38
2023-05-05T11:28:09.646Z,3.60
2023-05-05T11:30:57.935Z,6.38
2023-05-05T11:33:40.957Z,3.75
2023-05-05T11:36:19.596Z,3.88
2023-05-05T11:39:12.296Z,4.10
2023-05-05T11:41:57.226Z,4.72
2023-05-05T11:44:34.676Z,5.97
2023-05-05T11:47:05.277Z,6.32
2023-05-05T11:49:37.200Z,3.28
2023-05-05T11:52:07.205Z,4.55
2023-05-05T11:54:48.793Z,4.57
2023-05-05T11:57:28.159Z,3.80
2023-05-05T12:00:02.110Z,3.22
2023-05-05T12:02:41.087Z,4.22
2023-05-05T12:05:08.994Z,5.10
2023-05-05T12:07:37.283Z,3.85
2023-05-05T12:10:05.850Z,3.67
2023-05-05T12:12:38.552Z,5.82
2023-05-05T12:15:08.012Z,4.35
2023-05-05T12:17:46.043Z,3.42
2023-05-05T12:20:13.898Z,5.10
2023-05-05T12:22:41.247Z,3.45
2023-05-05T12:25:09.612Z,5.55
2023-05-05T12:27:37.279Z,3.47
2023-05-05T12:30:13.571Z,2.78
2023-05-05T12:32:41.599Z,8.70
2023-05-05T12:35:10.145Z,6.65
2023-05-05T12:37:38.080Z,2.95
2023-05-05T12:40:06.673Z,3.65
2023-05-05T12:42:39.393Z,6.70
2023-05-05T12:45:16.174Z,4.47
2023-05-05T12:47:44.948Z,2.08
2023-05-05T12:50:12.373Z,5.53
2023-05-05T12:52:45.090Z,3.67
2023-05-05T12:55:13.005Z,3.83
2023-05-05T12:58:00.557Z,5.57
2023-05-05T13:00:30.540Z,3.70
2023-05-05T13:02:58.179Z,3.55
2023-05-05T13:05:41.169Z,4.68
2023-05-05T13:08:08.331Z,2.55
2023-05-05T13:10:36.347Z,1.42
2023-05-05T13:13:05.049Z,7.38
2023-05-05T13:15:37.540Z,2.67
2023-05-05T13:18:06.285Z,2.88
2023-05-05T13:20:33.589Z,2.80
2023-05-05T13:23:00.806Z,3.70
2023-05-05T13:25:27.917Z,1.90
2023-05-05T13:27:55.207Z,2.30
2023-05-05T13:30:22.495Z,3.17
2023-05-05T13:32:49.839Z,3.03
2023-05-05T13:35:17.336Z,3.90
2023-05-05T13:37:46.152Z,6.70
2023-05-05T13:40:14.109Z,2.10
2023-05-05T13:42:41.288Z,2.30
2023-05-05T13:45:09.155Z,4.07
2023-05-05T13:47:36.879Z,2.05
2023-05-05T13:50:05.402Z,2.63
2023-05-05T13:52:33.459Z,1.40
2023-05-05T13:55:01.194Z,4.63
2023-05-05T13:57:31.693Z,1.52
2023-05-05T13:59:58.900Z,4.63
2023-05-05T14:02:26.565Z,1.70
2023-05-05T14:04:53.782Z,2.25
2023-05-05T14:07:21.863Z,3.25
2023-05-05T14:09:49.090Z,1.33
2023-05-05T14:12:16.419Z,2.42
2023-05-05T14:14:43.563Z,1.90
2023-05-05T14:17:11.304Z,2.90
2023-05-05T14:19:38.456Z,4.90
2023-05-05T14:22:05.988Z,3.90
2023-05-05T14:24:33.115Z,1.98
2023-05-05T14:27:00.366Z,2.75
2023-05-05T14:29:27.537Z,2.75
2023-05-05T14:31:54.689Z,2.42
2023-05-05T14:34:22.057Z,2.78
2023-05-05T14:36:49.248Z,1.75
2023-05-05T14:39:17.641Z,3.50
2023-05-05T14:41:44.977Z,3.22
2023-05-05T14:44:12.245Z,2.88
2023-05-05T14:46:39.658Z,4.30
2023-05-05T14:49:06.792Z,4.97
2023-05-05T14:51:34.033Z,5.90
2023-05-05T14:54:01.229Z,4.03
2023-05-05T14:56:28.783Z,4.60
2023-05-05T14:58:55.951Z,2.80
2023-05-05T15:01:25.088Z,4.07
2023-05-05T15:03:54.269Z,6.50
2023-05-05T15:06:21.672Z,7.13
2023-05-05T15:08:49.010Z,3.13
2023-05-05T15:11:16.111Z,7.07
2023-05-05T15:13:43.497Z,4.93
2023-05-05T15:16:10.636Z,4.93
2023-05-05T15:18:38.499Z,6.28
2023-05-05T15:21:05.856Z,4.50
2023-05-05T15:23:33.178Z,2.85
2023-05-05T15:26:00.550Z,6.18
2023-05-05T15:28:27.852Z,2.63
2023-05-05T15:30:55.016Z,2.15
2023-05-05T15:33:22.162Z,4.72
2023-05-05T15:35:49.353Z,3.88
2023-05-05T15:38:16.424Z,5.13
2023-05-05T15:40:44.900Z,2.40
2023-05-05T15:43:12.736Z,3.95
2023-05-05T15:45:41.575Z,5.25
2023-05-05T15:48:08.873Z,3.10
2023-05-05T15:50:36.173Z,5.05
2023-05-05T15:53:03.229Z,4.35
2023-05-05T15:55:30.694Z,3.15
2023-05-05T15:57:57.842Z,3.60
2023-05-05T16:00:25.869Z,6.70
2023-05-05T16:02:53.060Z,4.30
2023-05-05T16:05:22.800Z,5.47
2023-05-05T16:07:53.819Z,3.85
2023-05-05T16:10:23.794Z,9.05
2023-05-05T16:12:52.209Z,7.18
2023-05-05T16:15:20.001Z,6.55
2023-05-05T16:17:47.756Z,9.63
2023-05-05T16:20:14.943Z,3.55
2023-05-05T16:22:42.137Z,4.07
2023-05-05T16:25:09.949Z,7.10
2023-05-05T16:27:37.490Z,4.93
2023-05-05T16:30:13.069Z,5.78
2023-05-05T16:32:40.369Z,5.75
2023-05-05T16:35:09.474Z,4.60
2023-05-05T16:37:36.788Z,5.05
2023-05-05T16:40:09.901Z,5.32
2023-05-05T16:42:37.356Z,7.35
2023-05-05T16:45:04.904Z,4.97
2023-05-05T16:47:32.148Z,3.83
2023-05-05T16:49:59.455Z,4.55
2023-05-05T16:52:26.913Z,4.90
2023-05-05T16:54:56.691Z,3.28
2023-05-05T16:57:27.233Z,2.72
2023-05-05T16:59:56.524Z,4.22
2023-05-05T17:02:23.740Z,8.07
2023-05-05T17:04:51.107Z,16.55
2023-05-05T17:07:18.165Z,8.45
2023-05-05T17:09:45.260Z,6.70
2023-05-05T17:12:12.439Z,17.27
2023-05-05T17:14:39.956Z,10.75
2023-05-05T17:17:07.152Z,8.82
2023-05-05T17:19:34.512Z,9.93
2023-05-05T17:22:01.623Z,11.55
2023-05-05T17:24:28.706Z,11.55
2023-05-05T17:26:56.164Z,6.78
2023-05-05T17:29:23.453Z,7.95
2023-05-05T17:31:50.906Z,7.43
2023-05-05T17:34:18.164Z,4.63
2023-05-05T17:36:45.277Z,6.18
2023-05-05T17:39:12.334Z,7.25
2023-05-05T17:41:42.631Z,7.65
2023-05-05T17:44:09.865Z,5.80
2023-05-05T17:46:37.542Z,10.95
2023-05-05T17:49:05.169Z,11.23
2023-05-05T17:51:32.385Z,9.27
2023-05-05T17:53:59.535Z,10.90
2023-05-05T17:56:26.868Z,7.93
2023-05-05T17:58:54.000Z,8.05
2023-05-05T18:01:22.886Z,14.48
2023-05-05T18:03:50.203Z,10.93
2023-05-05T18:06:17.924Z,13.13
2023-05-05T18:08:45.064Z,12.93
2023-05-05T18:11:12.208Z,13.10
2023-05-05T18:13:39.721Z,11.55
2023-05-05T18:16:07.285Z,12.57
2023-05-05T18:18:34.723Z,21.13
2023-05-05T18:21:01.862Z,19.88
2023-05-05T18:23:29.108Z,14.30
2023-05-05T18:25:56.343Z,13.52
2023-05-05T18:28:23.985Z,11.68
2023-05-05T18:30:51.309Z,16.40
2023-05-05T18:33:18.640Z,11.75
2023-05-05T18:35:46.033Z,10.20
2023-05-05T18:38:16.745Z,9.15
2023-05-05T18:40:45.440Z,10.38
2023-05-05T18:43:12.669Z,10.27
2023-05-05T18:45:40.001Z,11.93
2023-05-05T18:48:07.376Z,14.07
2023-05-05T18:50:34.673Z,8.20
2023-05-05T18:53:02.010Z,10.95
2023-05-05T18:55:29.131Z,11.20
2023-05-05T18:57:59.931Z,12.55
2023-05-05T19:00:27.517Z,17.00
2023-05-05T19:02:54.775Z,12.60
2023-05-05T19:05:22.420Z,12.73
2023-05-05T19:07:49.570Z,15.75
2023-05-05T19:10:16.650Z,13.05
2023-05-05T19:12:43.778Z,9.70
2023-05-05T19:15:11.712Z,12.00
2023-05-05T19:17:39.217Z,17.13
2023-05-05T19:20:06.852Z,11.65
2023-05-05T19:22:34.058Z,12.50
2023-05-05T19:25:01.249Z,15.43
2023-05-05T19:27:33.891Z,20.45
2023-05-05T19:30:01.332Z,17.23
2023-05-05T19:32:32.586Z,13.05
2023-05-05T19:35:00.210Z,11.00
2023-05-05T19:37:28.174Z,10.25
2023-05-05T19:39:56.735Z,12.45
2023-05-05T19:42:24.362Z,20.65
2023-05-05T19:44:51.492Z,12.40
2023-05-05T19:47:18.563Z,9.32
2023-05-05T19:49:45.776Z,15.95
2023-05-05T19:52:13.130Z,15.35
2023-05-05T19:54:40.400Z,11.45
2023-05-05T19:57:07.658Z,10.30
2023-05-05T19:59:34.911Z,9.30
2023-05-05T20:02:02.178Z,9.27
2023-05-05T20:04:29.254Z,11.27
2023-05-05T20:06:57.394Z,12.27
2023-05-05T20:09:24.525Z,6.28
2023-05-05T20:11:51.956Z,11.32
2023-05-05T20:14:19.310Z,7.18
2023-05-05T20:16:46.811Z,8.00
2023-05-05T20:19:14.232Z,8.30
2023-05-05T20:21:41.401Z,11.18
2023-05-05T20:24:09.030Z,6.15
2023-05-05T20:26:36.871Z,9.98
2023-05-05T20:29:04.217Z,11.30
2023-05-05T20:31:31.508Z,9.82
2023-05-05T20:33:58.994Z,6.13
2023-05-05T20:36:26.748Z,8.70
2023-05-05T20:38:54.146Z,7.45
2023-05-05T20:41:22.387Z,7.85
2023-05-05T20:43:49.624Z,8.32
2023-05-05T20:46:16.798Z,11.43
2023-05-05T20:48:44.629Z,7.88
2023-05-05T20:51:12.566Z,11.10
2023-05-05T20:53:40.275Z,7.15
2023-05-05T20:56:08.774Z,8.80
2023-05-05T20:58:36.824Z,8.45
2023-05-05T21:01:04.146Z,8.10
2023-05-05T21:03:31.317Z,9.00
2023-05-05T21:05:58.504Z,13.57
2023-05-05T21:08:25.904Z,9.73
2023-05-05T21:10:53.317Z,12.13
2023-05-05T21:13:20.658Z,9.48
2023-05-05T21:15:50.517Z,13.70
2023-05-05T21:18:17.991Z,9.13
2023-05-05T21:20:45.261Z,9.20
2023-05-05T21:23:12.462Z,10.20
2023-05-05T21:25:39.706Z,8.30
2023-05-05T21:28:07.162Z,8.52
2023-05-05T21:30:34.282Z,16.25
2023-05-05T21:33:01.503Z,11.43
2023-05-05T21:35:29.005Z,7.25
2023-05-05T21:37:56.179Z,7.35
2023-05-05T21:40:23.267Z,11.90
2023-05-05T21:42:50.621Z,7.88
2023-05-05T21:45:17.709Z,12.10
2023-05-05T21:47:44.965Z,7.65
2023-05-05T21:50:12.571Z,7.32
2023-05-05T21:52:40.082Z,5.93
2023-05-05T21:55:07.768Z,9.25
2023-05-05T21:57:34.877Z,10.13
2023-05-05T22:00:02.264Z,8.38
2023-05-05T22:02:40.427Z,14.63
2023-05-05T22:05:08.412Z,11.40
2023-05-05T22:07:35.665Z,6.53
2023-05-05T22:10:03.937Z,6.70
2023-05-05T22:12:33.176Z,5.95
2023-05-05T22:15:00.445Z,12.63
2023-05-05T22:17:27.636Z,9.00
2023-05-05T22:19:54.877Z,11.68
2023-05-05T22:22:22.311Z,14.18
2023-05-05T22:24:49.552Z,9.45
2023-05-05T22:27:16.938Z,7.13
2023-05-05T22:29:44.250Z,6.93
2023-05-05T22:32:11.637Z,7.22
2023-05-05T22:34:39.081Z,7.82
2023-05-05T22:37:06.279Z,8.88
2023-05-05T22:39:33.658Z,8.30
2023-05-05T22:42:02.035Z,10.57
2023-05-05T22:44:29.812Z,7.22
2023-05-05T22:46:57.071Z,7.00
2023-05-05T22:49:24.282Z,8.07
2023-05-05T22:51:52.070Z,5.80
2023-05-05T22:54:19.636Z,8.95
2023-05-05T22:56:47.399Z,5.07
2023-05-05T22:59:15.058Z,4.00
2023-05-05T23:01:42.654Z,10.13
2023-05-05T23:04:10.171Z,9.10
2023-05-05T23:06:37.567Z,9.63
2023-05-05T23:09:04.797Z,7.22
2023-05-05T23:11:32.061Z,11.10
2023-05-05T23:13:59.384Z,11.73
2023-05-05T23:16:26.561Z,7.47
2023-05-05T23:18:53.966Z,8.65
2023-05-05T23:21:21.405Z,9.73
2023-05-05T23:23:49.426Z,8.70
2023-05-05T23:26:16.716Z,7.95
2023-05-05T23:28:44.023Z,11.23
2023-05-05T23:31:11.320Z,10.10
2023-05-05T23:33:38.739Z,8.15
2023-05-05T23:36:06.136Z,9.73
2023-05-05T23:38:33.550Z,11.45
2023-05-05T23:41:00.870Z,10.75
2023-05-05T23:43:28.263Z,7.68
2023-05-05T23:45:55.908Z,9.52
2023-05-05T23:48:23.311Z,12.45
2023-05-05T23:50:50.654Z,10.75
2023-05-05T23:53:17.937Z,6.95
2023-05-05T23:55:45.395Z,9.18
2023-05-05T23:58:12.697Z,9.95
